Terminal Aerodrome Forecast
Issued by NWS Sioux Falls, SD

Home | Current Version | Previous Version | Text Only | Print | Product List | Glossary On
Versions: 1 2 3 4 5 6 7 8 9 10 11 12 13 14 15 16 17 18 19 20 21 22 23 24 25 26 27 28 29 30 31 32 33 34
000
FTUS43 KFSD 180931 AAC
TAFSUX
TAF AMD
KSUX 180931Z 1810/1906 03012KT 6SM -SN OVC050
     FM181030 01012KT 4SM -SN OVC025
     FM181200 35014G22KT 2SM -SN OVC014
     FM181700 34014KT 4SM -RASN OVC008
     FM182000 33012KT P6SM OVC010
     FM190300 33008KT P6SM BKN020=

USA.gov is the U.S. government's official web portal to all federal, state and local government web resources and services.